Time;durP1;ratioP1;P1;durP2;ratioP2;P2;SDS_P1;SDS_P2;PMS_P1;PMS_P2;Temp;Humidity;BMP_temperature;BMP_pressure;BME280_temperature;BME280_humidity;BME280_pressure;Samples;Min_cycle;Max_cycle;Signal;HPM_P1;HPM_P2
2022/09/18 00:01:31;;;;;;;2.70;2.50;;;11.60;99.90;;;;;;5053422;28;20511;-75
2022/09/18 00:03:59;;;;;;;2.17;1.97;;;11.50;99.90;;;;;;5053604;28;20833;-75
2022/09/18 00:06:30;;;;;;;7.23;3.70;;;11.50;99.90;;;;;;5052598;28;20648;-75
2022/09/18 00:08:58;;;;;;;4.30;3.27;;;11.40;99.90;;;;;;5052665;28;20438;-75
2022/09/18 00:11:27;;;;;;;2.87;2.67;;;11.40;99.90;;;;;;5053988;28;20456;-75
2022/09/18 00:13:56;;;;;;;2.90;2.60;;;11.40;99.90;;;;;;5056065;28;20499;-75
2022/09/18 00:16:24;;;;;;;5.53;3.20;;;11.20;99.90;;;;;;5056137;28;20469;-75
2022/09/18 00:18:51;;;;;;;2.50;2.33;;;11.10;99.90;;;;;;5055629;28;20500;-74
2022/09/18 00:21:23;;;;;;;2.97;2.70;;;11.20;99.90;;;;;;5055920;28;20866;-75
2022/09/18 00:23:52;;;;;;;2.33;2.13;;;11.10;99.90;;;;;;5055771;28;20476;-75
2022/09/18 00:26:19;;;;;;;2.30;2.10;;;11.00;99.90;;;;;;5055740;28;20484;-75
2022/09/18 00:28:46;;;;;;;3.60;2.50;;;11.00;99.90;;;;;;5055934;28;20445;-74
2022/09/18 00:31:15;;;;;;;2.67;2.50;;;10.80;99.90;;;;;;5055889;28;20442;-75
2022/09/18 00:33:43;;;;;;;3.57;2.10;;;10.90;99.90;;;;;;5055765;28;20449;-74
2022/09/18 00:36:13;;;;;;;2.87;2.40;;;11.00;99.90;;;;;;5055500;28;20465;-74
2022/09/18 00:38:40;;;;;;;5.90;3.53;;;10.90;99.90;;;;;;5056008;28;20496;-75
2022/09/18 00:41:13;;;;;;;6.30;3.10;;;11.00;99.90;;;;;;5055467;28;20452;-75
2022/09/18 00:43:40;;;;;;;2.97;2.60;;;11.00;99.90;;;;;;5038236;28;20488;-75
2022/09/18 00:46:19;;;;;;;3.80;2.40;;;10.90;99.90;;;;;;5055417;28;20519;-75
2022/09/18 00:48:52;;;;;;;2.93;2.70;;;10.90;99.90;;;;;;5055676;28;20459;-76
2022/09/18 00:51:19;;;;;;;5.17;3.37;;;10.80;99.90;;;;;;5055602;28;20430;-75
2022/09/18 00:53:51;;;;;;;5.20;3.23;;;10.80;99.90;;;;;;5055756;28;20449;-75
2022/09/18 00:56:20;;;;;;;9.37;6.03;;;10.80;99.90;;;;;;5055201;28;20978;-75
2022/09/18 00:58:46;;;;;;;2.97;2.57;;;10.80;99.90;;;;;;5056075;28;20485;-75
2022/09/18 01:01:13;;;;;;;2.20;2.10;;;10.80;99.90;;;;;;5055595;28;20429;-75
2022/09/18 01:03:40;;;;;;;2.70;2.00;;;10.80;99.90;;;;;;5055305;28;20539;-75
2022/09/18 01:06:13;;;;;;;3.27;1.60;;;10.80;99.90;;;;;;5055178;28;20470;-75
2022/09/18 01:08:51;;;;;;;1.87;1.77;;;10.70;99.90;;;;;;5055255;28;20422;-75
2022/09/18 01:11:30;;;;;;;1.73;1.63;;;10.90;99.90;;;;;;5055544;28;20444;-75
2022/09/18 01:14:09;;;;;;;2.23;1.80;;;10.70;99.90;;;;;;5054699;28;20903;-75
2022/09/18 01:16:43;;;;;;;1.37;1.27;;;10.60;99.90;;;;;;5054467;28;20521;-75
2022/09/18 01:19:25;;;;;;;2.40;2.03;;;10.60;99.90;;;;;;5055340;28;20458;-75
2022/09/18 01:22:06;;;;;;;1.17;1.10;;;10.60;99.90;;;;;;5056411;28;20899;-75
2022/09/18 01:24:44;;;;;;;4.90;1.73;;;10.70;99.90;;;;;;5056021;28;20476;-75
2022/09/18 01:27:19;;;;;;;1.23;1.13;;;10.70;99.90;;;;;;5055924;28;20496;-75
2022/09/18 01:29:55;;;;;;;1.80;1.70;;;10.70;99.90;;;;;;5055033;28;20430;-75
2022/09/18 01:32:27;;;;;;;1.77;1.40;;;10.70;99.90;;;;;;5054837;28;20430;-75
2022/09/18 01:35:04;;;;;;;1.50;1.20;;;10.70;99.90;;;;;;5054825;28;20545;-75
2022/09/18 01:37:38;;;;;;;1.30;1.20;;;10.70;99.90;;;;;;5054704;28;20781;-75
2022/09/18 01:40:13;;;;;;;1.50;1.40;;;10.60;99.90;;;;;;5054547;28;20426;-75
2022/09/18 01:42:41;;;;;;;2.10;1.13;;;10.60;99.90;;;;;;5054481;28;20430;-76
2022/09/18 01:45:11;;;;;;;3.23;1.10;;;10.50;99.90;;;;;;5055518;28;20504;-75
2022/09/18 01:47:50;;;;;;;1.50;1.37;;;10.60;99.90;;;;;;5054290;28;20434;-75
2022/09/18 01:50:18;;;;;;;1.53;1.03;;;10.60;99.90;;;;;;5054042;28;20436;-75
2022/09/18 01:52:48;;;;;;;1.50;1.40;;;10.50;99.90;;;;;;5054147;28;20453;-75
2022/09/18 01:55:19;;;;;;;1.20;1.10;;;10.50;99.90;;;;;;5054664;28;20459;-76
2022/09/18 01:57:51;;;;;;;1.10;1.07;;;10.60;99.90;;;;;;5054195;28;20488;-76
2022/09/18 02:00:20;;;;;;;4.10;1.13;;;10.60;99.90;;;;;;5054424;28;20430;-76
2022/09/18 02:02:51;;;;;;;1.83;1.40;;;10.60;99.90;;;;;;5054095;28;20460;-74
2022/09/18 02:05:24;;;;;;;1.63;1.53;;;10.50;99.90;;;;;;5054191;28;20547;-77
2022/09/18 02:07:59;;;;;;;1.60;1.50;;;10.60;99.90;;;;;;5054721;28;20882;-75
2022/09/18 02:10:32;;;;;;;2.73;1.53;;;10.60;99.90;;;;;;5054549;28;20458;-75
2022/09/18 02:12:59;;;;;;;1.23;0.90;;;10.60;99.90;;;;;;5053651;28;20960;-75
2022/09/18 02:15:32;;;;;;;1.20;1.10;;;10.60;99.90;;;;;;5053300;28;20470;-75
2022/09/18 02:18:02;;;;;;;2.93;1.43;;;10.60;99.90;;;;;;5053719;28;20449;-75
2022/09/18 02:20:34;;;;;;;2.67;2.33;;;10.60;99.90;;;;;;5053956;28;20497;-75
2022/09/18 02:23:04;;;;;;;4.80;1.73;;;10.60;99.90;;;;;;5053682;28;20492;-75
2022/09/18 02:25:35;;;;;;;1.37;1.20;;;10.80;99.90;;;;;;5053191;28;20996;-75
2022/09/18 02:28:05;;;;;;;2.60;1.33;;;10.70;99.90;;;;;;5053547;28;20483;-76
2022/09/18 02:30:34;;;;;;;1.60;1.50;;;10.70;99.90;;;;;;5053375;28;20503;-75
2022/09/18 02:33:01;;;;;;;3.40;2.10;;;10.70;99.90;;;;;;5053490;28;20446;-74
2022/09/18 02:35:45;;;;;;;2.33;2.13;;;10.70;99.90;;;;;;5052565;28;20473;-75
2022/09/18 02:38:19;;;;;;;2.20;2.00;;;10.70;99.90;;;;;;5053314;28;20430;-75
2022/09/18 02:40:57;;;;;;;4.40;1.93;;;10.70;99.90;;;;;;5053522;28;20437;-75
2022/09/18 02:43:35;;;;;;;1.53;1.43;;;10.70;99.90;;;;;;5053184;28;20495;-75
2022/09/18 02:46:12;;;;;;;1.83;1.60;;;10.60;99.90;;;;;;5053526;28;20855;-75
2022/09/18 02:48:50;;;;;;;3.30;1.93;;;10.60;99.90;;;;;;5053099;28;20935;-75
2022/09/18 02:51:27;;;;;;;2.03;1.90;;;10.50;99.90;;;;;;5053754;28;20430;-75
2022/09/18 02:53:58;;;;;;;7.33;2.80;;;10.60;99.90;;;;;;5053319;28;20440;-74
2022/09/18 02:56:33;;;;;;;5.60;3.27;;;10.60;99.90;;;;;;5052797;28;20547;-73
2022/09/18 02:59:05;;;;;;;2.97;2.30;;;10.60;99.90;;;;;;5053181;28;20440;-75
2022/09/18 03:01:34;;;;;;;5.90;2.57;;;10.60;99.90;;;;;;5053138;28;20451;-75
2022/09/18 03:04:03;;;;;;;4.10;3.07;;;10.60;99.90;;;;;;5052922;28;20450;-76
2022/09/18 03:06:32;;;;;;;16.70;2.93;;;10.60;99.90;;;;;;5053030;28;20830;-75
2022/09/18 03:08:59;;;;;;;4.00;2.60;;;10.60;99.90;;;;;;5053696;28;20454;-75
2022/09/18 03:11:25;;;;;;;5.13;2.90;;;10.60;99.90;;;;;;5052944;28;20442;-75
2022/09/18 03:13:52;;;;;;;5.80;2.77;;;10.60;99.90;;;;;;5053707;28;20450;-75
2022/09/18 03:16:19;;;;;;;5.93;3.03;;;10.60;99.90;;;;;;5053208;28;20587;-76
2022/09/18 03:18:47;;;;;;;9.97;3.13;;;10.60;99.90;;;;;;5052625;28;20454;-76
2022/09/18 03:21:13;;;;;;;9.73;4.00;;;10.60;99.90;;;;;;5053051;28;20457;-75
2022/09/18 03:23:40;;;;;;;13.00;4.90;;;10.60;99.90;;;;;;5052916;28;20856;-76
2022/09/18 03:26:09;;;;;;;8.93;3.80;;;10.60;99.90;;;;;;5052840;28;20572;-75
2022/09/18 03:28:35;;;;;;;7.27;3.20;;;10.60;99.90;;;;;;5052841;28;20544;-76
2022/09/18 03:31:02;;;;;;;9.63;4.27;;;10.60;99.90;;;;;;5052862;28;20453;-76
2022/09/18 03:33:29;;;;;;;8.50;2.97;;;10.60;99.90;;;;;;5052632;28;20441;-76
2022/09/18 03:35:57;;;;;;;8.53;3.17;;;10.50;99.90;;;;;;5052721;28;20469;-75
2022/09/18 03:38:23;;;;;;;9.33;3.13;;;10.50;99.90;;;;;;5052503;28;20449;-75
2022/09/18 03:40:50;;;;;;;9.67;3.30;;;10.50;99.90;;;;;;5053244;28;20453;-75
2022/09/18 03:43:16;;;;;;;16.60;3.93;;;10.50;99.90;;;;;;5054173;28;20441;-75
2022/09/18 03:45:43;;;;;;;10.20;4.37;;;10.50;99.90;;;;;;5054173;28;20516;-76
2022/09/18 03:48:10;;;;;;;13.10;4.50;;;10.50;99.90;;;;;;5056811;28;20540;-75
2022/09/18 03:50:37;;;;;;;9.97;5.23;;;10.60;99.90;;;;;;5056970;28;20874;-75
2022/09/18 03:53:07;;;;;;;7.40;3.60;;;10.60;99.90;;;;;;5056542;28;20445;-75
2022/09/18 03:55:33;;;;;;;9.80;3.60;;;10.60;99.90;;;;;;5056705;28;20479;-75
2022/09/18 03:58:00;;;;;;;8.13;3.97;;;10.60;99.90;;;;;;5056633;28;20424;-75
2022/09/18 04:00:27;;;;;;;20.07;3.90;;;10.60;99.90;;;;;;5056466;28;20835;-75
2022/09/18 04:02:54;;;;;;;6.77;3.60;;;10.50;99.90;;;;;;5056492;28;20845;-75
2022/09/18 04:05:20;;;;;;;13.70;5.40;;;10.60;99.90;;;;;;5056069;28;20494;-75
2022/09/18 04:07:47;;;;;;;4.53;3.10;;;10.60;99.90;;;;;;5056021;28;20938;-75
2022/09/18 04:10:15;;;;;;;15.83;3.37;;;10.60;99.90;;;;;;5056396;28;20445;-75
2022/09/18 04:12:44;;;;;;;10.70;4.20;;;10.60;99.90;;;;;;5056207;28;20446;-75
2022/09/18 04:15:11;;;;;;;6.63;3.50;;;10.30;99.90;;;;;;5055856;28;20984;-75
2022/09/18 04:17:37;;;;;;;8.50;6.63;;;10.60;99.90;;;;;;5056199;28;20453;-75
2022/09/18 04:20:05;;;;;;;8.80;4.30;;;10.60;99.90;;;;;;5056572;28;20519;-75
2022/09/18 04:22:31;;;;;;;5.23;3.03;;;10.60;99.90;;;;;;5055745;28;20974;-75
2022/09/18 04:24:58;;;;;;;15.03;3.70;;;10.70;99.90;;;;;;5055803;28;20485;-76
2022/09/18 04:27:26;;;;;;;7.33;3.93;;;10.60;99.90;;;;;;5055828;28;20454;-75
2022/09/18 04:29:53;;;;;;;8.13;3.23;;;10.60;99.90;;;;;;5055848;28;20821;-75
2022/09/18 04:32:21;;;;;;;11.27;3.83;;;10.50;99.90;;;;;;5055683;28;20445;-75
2022/09/18 04:34:48;;;;;;;11.23;3.60;;;10.80;99.90;;;;;;5055563;28;20449;-75
2022/09/18 04:37:15;;;;;;;6.93;4.03;;;10.50;99.90;;;;;;5055361;28;20464;-75
2022/09/18 04:39:42;;;;;;;9.00;3.60;;;10.50;99.90;;;;;;5055629;28;20454;-75
2022/09/18 04:42:08;;;;;;;7.90;4.10;;;10.50;99.90;;;;;;5055401;28;20449;-76
2022/09/18 04:44:36;;;;;;;8.90;4.17;;;10.30;99.90;;;;;;5055929;28;20504;-75
2022/09/18 04:47:03;;;;;;;7.83;3.23;;;10.60;99.90;;;;;;5055440;28;20473;-76
2022/09/18 04:49:30;;;;;;;8.77;3.80;;;10.60;99.90;;;;;;5055852;28;20461;-75
2022/09/18 04:51:56;;;;;;;7.80;5.80;;;10.50;99.90;;;;;;5054999;28;20454;-75
2022/09/18 04:54:23;;;;;;;16.17;5.10;;;10.50;99.90;;;;;;5055289;28;20428;-75
2022/09/18 04:56:50;;;;;;;16.97;4.23;;;10.50;99.90;;;;;;5054552;28;20832;-75
2022/09/18 04:59:17;;;;;;;8.83;3.77;;;10.50;99.90;;;;;;5054675;28;20501;-75
2022/09/18 05:01:50;;;;;;;7.30;3.47;;;10.50;99.90;;;;;;5055211;28;20457;-75
2022/09/18 05:04:16;;;;;;;8.53;3.47;;;10.50;99.90;;;;;;5055247;28;20524;-75
2022/09/18 05:06:43;;;;;;;8.43;3.20;;;10.50;99.90;;;;;;5054991;28;20498;-75
2022/09/18 05:09:10;;;;;;;31.03;15.33;;;10.50;99.90;;;;;;5055042;28;20495;-75
2022/09/18 05:11:36;;;;;;;18.33;10.63;;;10.50;99.90;;;;;;5055203;28;20429;-75
2022/09/18 05:14:03;;;;;;;16.20;9.30;;;10.50;99.90;;;;;;5054955;28;20446;-75
2022/09/18 05:16:30;;;;;;;12.97;4.10;;;10.70;99.90;;;;;;5055593;28;20535;-74
2022/09/18 05:18:58;;;;;;;25.57;9.27;;;10.60;99.90;;;;;;5054833;28;20476;-74
2022/09/18 05:21:24;;;;;;;16.17;6.70;;;10.60;99.90;;;;;;5054784;28;20447;-74
2022/09/18 05:23:51;;;;;;;21.93;12.23;;;10.50;99.90;;;;;;5054936;28;20420;-75
2022/09/18 05:26:18;;;;;;;28.37;15.50;;;10.50;99.90;;;;;;5054839;28;20486;-75
2022/09/18 05:28:44;;;;;;;9.90;4.00;;;10.50;99.90;;;;;;5054660;28;21035;-74
2022/09/18 05:31:11;;;;;;;10.13;3.50;;;10.50;99.90;;;;;;5054827;28;20459;-75
2022/09/18 05:33:40;;;;;;;27.93;16.73;;;10.50;99.90;;;;;;5054686;28;20461;-75
2022/09/18 05:36:09;;;;;;;11.40;5.65;;;10.50;99.90;;;;;;5054035;28;20440;-76
2022/09/18 05:38:35;;;;;;;8.90;6.60;;;10.50;99.90;;;;;;5054609;28;20591;-75
2022/09/18 05:41:03;;;;;;;9.77;3.40;;;10.50;99.90;;;;;;5054671;28;20449;-75
2022/09/18 05:43:30;;;;;;;51.63;31.77;;;10.50;99.90;;;;;;5054537;28;20453;-75
2022/09/18 05:45:57;;;;;;;31.53;18.50;;;10.50;99.90;;;;;;5054587;28;20476;-75
2022/09/18 05:48:24;;;;;;;19.87;8.70;;;10.50;99.90;;;;;;5054402;28;20446;-75
2022/09/18 05:50:50;;;;;;;23.80;12.37;;;10.50;99.90;;;;;;5054608;28;20445;-77
2022/09/18 05:53:20;;;;;;;17.07;9.00;;;10.40;99.90;;;;;;5054369;28;20449;-76
2022/09/18 05:55:47;;;;;;;14.20;5.70;;;10.40;99.90;;;;;;5053900;28;20474;-76
2022/09/18 05:58:16;;;;;;;12.37;6.53;;;10.30;99.90;;;;;;5054067;28;20932;-76
2022/09/18 06:00:44;;;;;;;19.80;6.90;;;10.30;99.90;;;;;;5053784;28;20449;-76
2022/09/18 06:03:12;;;;;;;13.37;6.40;;;10.30;99.90;;;;;;5054101;28;20963;-76
2022/09/18 06:05:40;;;;;;;17.63;5.97;;;10.20;99.90;;;;;;5053852;28;20485;-76
2022/09/18 06:08:08;;;;;;;23.37;11.03;;;10.20;99.90;;;;;;5053619;28;20423;-76
2022/09/18 06:10:39;;;;;;;17.80;6.43;;;10.30;99.90;;;;;;5053656;28;20442;-76
2022/09/18 06:13:07;;;;;;;11.87;3.93;;;10.30;99.90;;;;;;5053827;28;20476;-76
2022/09/18 06:15:35;;;;;;;10.70;6.10;;;10.30;99.90;;;;;;5053691;28;20465;-75
2022/09/18 06:18:02;;;;;;;16.42;8.98;;;10.20;99.90;;;;;;5052963;28;20833;-75
2022/09/18 06:20:28;;;;;;;10.63;4.00;;;10.30;99.90;;;;;;5053406;28;20678;-76
2022/09/18 06:22:59;;;;;;;17.03;4.40;;;10.30;99.90;;;;;;5054415;28;20492;-76
2022/09/18 06:25:25;;;;;;;7.50;3.90;;;10.30;99.90;;;;;;5053297;28;20539;-76
2022/09/18 06:27:57;;;;;;;17.03;10.10;;;10.40;99.90;;;;;;5054568;28;20453;-76
2022/09/18 06:30:24;;;;;;;7.23;4.17;;;10.40;99.90;;;;;;5053681;28;20466;-75
2022/09/18 06:32:51;;;;;;;7.63;3.63;;;10.40;99.90;;;;;;5053662;28;20446;-76
2022/09/18 06:35:17;;;;;;;13.02;5.32;;;10.50;99.90;;;;;;5053290;28;20424;-76
2022/09/18 06:37:44;;;;;;;9.90;4.03;;;10.50;99.90;;;;;;5054370;28;20206;-76
2022/09/18 06:40:11;;;;;;;11.77;6.30;;;10.50;99.90;;;;;;5053714;28;20453;-76
2022/09/18 06:42:37;;;;;;;9.83;5.07;;;10.50;99.90;;;;;;5053621;28;20438;-76
2022/09/18 06:45:06;;;;;;;20.60;7.20;;;10.50;99.90;;;;;;5053182;28;20473;-74
2022/09/18 06:47:33;;;;;;;7.10;2.70;;;10.50;99.90;;;;;;5053450;28;20446;-76
2022/09/18 06:50:00;;;;;;;4.57;2.57;;;10.60;99.90;;;;;;5053138;28;20990;-76
2022/09/18 06:52:27;;;;;;;6.77;3.03;;;10.50;99.90;;;;;;5053439;28;20441;-75
2022/09/18 06:54:53;;;;;;;11.40;4.10;;;10.60;99.90;;;;;;5053647;28;20470;-76
2022/09/18 06:57:20;;;;;;;17.43;9.17;;;10.70;99.90;;;;;;5053581;28;20521;-75
2022/09/18 06:59:47;;;;;;;23.60;9.20;;;10.70;99.90;;;;;;5053210;28;20936;-75
2022/09/18 07:02:15;;;;;;;17.40;9.70;;;10.70;99.90;;;;;;5053148;28;20528;-75
2022/09/18 07:04:42;;;;;;;6.00;3.30;;;10.70;99.90;;;;;;5053393;28;20453;-76
2022/09/18 07:07:08;;;;;;;5.97;2.47;;;10.80;99.90;;;;;;5053051;28;20480;-75
2022/09/18 07:09:35;;;;;;;11.52;3.50;;;10.80;99.90;;;;;;5052839;28;20439;-76
2022/09/18 07:12:02;;;;;;;6.03;2.87;;;10.90;99.90;;;;;;5052742;28;20941;-75
2022/09/18 07:14:29;;;;;;;9.03;5.60;;;10.90;99.90;;;;;;5053727;28;20499;-76
2022/09/18 07:16:55;;;;;;;11.70;4.17;;;10.90;99.90;;;;;;5053316;28;20465;-76
2022/09/18 07:19:23;;;;;;;24.23;14.03;;;10.90;99.90;;;;;;5053113;28;20862;-76
2022/09/18 07:21:51;;;;;;;16.93;4.80;;;11.00;99.90;;;;;;5055498;28;21000;-76
2022/09/18 07:24:18;;;;;;;6.67;2.83;;;11.00;99.90;;;;;;5061092;28;20874;-75
2022/09/18 07:26:45;;;;;;;17.33;8.57;;;11.00;99.90;;;;;;5057115;28;20464;-75
2022/09/18 07:29:11;;;;;;;11.13;6.70;;;11.10;99.90;;;;;;5056671;28;20457;-75
2022/09/18 07:31:38;;;;;;;4.77;2.27;;;11.10;99.90;;;;;;5057201;28;20441;-76
2022/09/18 07:34:06;;;;;;;12.77;5.60;;;11.20;99.90;;;;;;5057085;28;20511;-75
2022/09/18 07:36:34;;;;;;;10.10;5.93;;;11.20;99.90;;;;;;5057018;28;20870;-75
2022/09/18 07:39:00;;;;;;;6.77;2.80;;;11.30;99.90;;;;;;5056669;28;20453;-75
2022/09/18 07:41:27;;;;;;;6.87;3.10;;;11.40;99.90;;;;;;5056878;28;20441;-75
2022/09/18 07:43:54;;;;;;;12.80;4.13;;;11.40;99.90;;;;;;5056890;28;20496;-75
2022/09/18 07:46:20;;;;;;;8.40;2.53;;;11.40;99.90;;;;;;5056658;28;20486;-75
2022/09/18 07:48:47;;;;;;;3.60;2.07;;;11.40;99.90;;;;;;5056654;28;20507;-76
2022/09/18 07:51:14;;;;;;;12.57;6.17;;;11.50;99.90;;;;;;5057373;28;20527;-75
2022/09/18 07:53:42;;;;;;;7.83;3.27;;;11.50;99.90;;;;;;5057592;28;20489;-75
2022/09/18 07:56:10;;;;;;;9.40;4.87;;;11.50;99.90;;;;;;5105181;22;20498;-78
2022/09/18 07:58:37;;;;;;;8.90;3.57;;;11.60;99.90;;;;;;5080468;28;20453;-79
2022/09/18 08:01:05;;;;;;;20.03;9.93;;;11.70;99.90;;;;;;5078451;28;20819;-78
2022/09/18 08:03:32;;;;;;;11.77;4.27;;;11.70;99.90;;;;;;5078600;28;20816;-78
2022/09/18 08:05:59;;;;;;;9.95;5.28;;;11.70;99.90;;;;;;5079134;28;20845;-78
2022/09/18 08:08:25;;;;;;;5.20;2.33;;;11.90;99.90;;;;;;5079943;28;20301;-78
2022/09/18 08:10:55;;;;;;;10.67;4.47;;;11.90;99.90;;;;;;5077391;28;21050;-79
2022/09/18 08:13:22;;;;;;;4.30;1.73;;;12.00;99.90;;;;;;5078621;28;20813;-79
2022/09/18 08:15:49;;;;;;;6.83;2.10;;;12.00;99.90;;;;;;5079574;28;20607;-79
2022/09/18 08:18:16;;;;;;;12.57;4.17;;;12.00;99.90;;;;;;5078736;28;20448;-79
2022/09/18 08:20:43;;;;;;;15.93;5.83;;;12.10;99.90;;;;;;5083791;28;20452;-79
2022/09/18 08:23:11;;;;;;;7.50;5.20;;;12.20;99.90;;;;;;5081606;28;20864;-78
2022/09/18 08:25:38;;;;;;;18.97;7.70;;;12.20;99.90;;;;;;5079471;28;20844;-78
2022/09/18 08:28:07;;;;;;;12.60;7.30;;;12.30;99.90;;;;;;5078571;28;20510;-79
2022/09/18 08:30:34;;;;;;;5.87;4.23;;;12.40;99.90;;;;;;5078764;28;20429;-78
2022/09/18 08:33:02;;;;;;;11.23;4.70;;;12.40;99.90;;;;;;5079302;28;20445;-78
2022/09/18 08:35:29;;;;;;;16.33;5.10;;;12.40;99.90;;;;;;5077601;28;20514;-79
2022/09/18 08:37:56;;;;;;;3.43;1.97;;;12.50;99.90;;;;;;5079151;28;20491;-78
2022/09/18 08:40:47;;;;;;;4.83;1.50;;;12.40;99.90;;;;;;5079346;28;20449;-78
2022/09/18 08:43:30;;;;;;;4.50;2.07;;;12.40;99.90;;;;;;5078511;28;20425;-79
2022/09/18 08:46:01;;;;;;;6.03;1.87;;;12.40;99.90;;;;;;5087240;28;20518;-78
2022/09/18 08:48:31;;;;;;;7.43;2.50;;;12.40;99.90;;;;;;5089424;28;20421;-78
2022/09/18 08:51:02;;;;;;;3.90;2.00;;;12.50;99.90;;;;;;5084967;28;20459;-78
2022/09/18 08:53:33;;;;;;;5.10;1.70;;;12.60;99.90;;;;;;5078654;28;20429;-78
2022/09/18 08:56:03;;;;;;;4.83;2.10;;;12.60;99.90;;;;;;5077910;28;21101;-78
2022/09/18 08:58:37;;;;;;;6.73;1.60;;;12.60;99.90;;;;;;5073941;28;20487;-77
2022/09/18 09:01:08;;;;;;;6.87;1.60;;;12.70;99.90;;;;;;5076942;28;20502;-79
2022/09/18 09:03:47;;;;;;;5.90;2.10;;;12.70;99.90;;;;;;5078200;28;20429;-78
2022/09/18 09:06:26;;;;;;;6.10;2.27;;;12.70;99.90;;;;;;5078497;28;20484;-78
2022/09/18 09:09:21;;;;;;;8.40;2.87;;;12.50;99.90;;;;;;5079597;28;20432;-79
2022/09/18 09:11:56;;;;;;;7.93;1.63;;;12.70;99.90;;;;;;5086124;28;20435;-76
2022/09/18 09:14:44;;;;;;;2.50;1.50;;;12.80;99.90;;;;;;5091719;28;20186;-76
2022/09/18 09:17:16;;;;;;;4.20;1.93;;;12.80;99.90;;;;;;5089513;28;20468;-79
2022/09/18 09:19:52;;;;;;;6.33;2.30;;;12.90;99.90;;;;;;5080424;28;20509;-79
2022/09/18 09:22:37;;;;;;;3.53;2.07;;;13.00;99.90;;;;;;5082519;28;20428;-79
2022/09/18 09:25:19;;;;;;;7.37;2.70;;;12.70;99.90;;;;;;5095082;28;20417;-78
2022/09/18 09:27:50;;;;;;;8.03;5.57;;;12.90;99.90;;;;;;5095239;28;20465;-77
2022/09/18 09:30:20;;;;;;;7.03;2.07;;;13.00;1.00;;;;;;5081886;28;20437;-79
2022/09/18 09:32:51;;;;;;;7.60;3.30;;;13.00;99.90;;;;;;5078579;28;20911;-79
2022/09/18 09:35:25;;;;;;;14.13;3.10;;;13.10;1.00;;;;;;5092748;28;20451;-76
2022/09/18 09:37:52;;;;;;;8.17;2.37;;;13.00;99.90;;;;;;5093202;28;20457;-77
2022/09/18 09:40:24;;;;;;;8.17;4.90;;;12.80;99.90;;;;;;5084469;28;20548;-78
2022/09/18 09:42:55;;;;;;;9.60;2.87;;;12.90;99.90;;;;;;5080796;28;20425;-78
2022/09/18 09:45:28;;;;;;;4.63;2.50;;;13.00;99.90;;;;;;5087602;28;20499;-79
2022/09/18 09:48:03;;;;;;;10.90;6.53;;;13.00;99.90;;;;;;5088709;28;20468;-79
2022/09/18 09:50:40;;;;;;;8.00;2.87;;;13.20;1.00;;;;;;5082135;28;20486;-78
2022/09/18 09:53:10;;;;;;;8.07;2.47;;;13.20;1.00;;;;;;5084247;28;20488;-78
2022/09/18 09:55:45;;;;;;;16.73;9.27;;;13.30;1.00;;;;;;5085020;28;20484;-78
2022/09/18 09:58:18;;;;;;;10.90;3.70;;;13.30;1.00;;;;;;5080836;28;20889;-79
2022/09/18 10:00:52;;;;;;;8.93;3.47;;;13.30;1.00;;;;;;5076986;28;20471;-77
2022/09/18 10:03:28;;;;;;;7.88;3.63;;;13.30;1.00;;;;;;5073634;28;20924;-79
2022/09/18 10:06:02;;;;;;;9.67;3.90;;;13.30;1.00;;;;;;5074647;28;20716;-77
2022/09/18 10:08:38;;;;;;;6.13;1.97;;;13.30;1.00;;;;;;5075353;28;20421;-80
2022/09/18 10:11:07;;;;;;;6.60;1.47;;;13.30;99.90;;;;;;5075159;28;20486;-80
2022/09/18 10:13:41;;;;;;;5.70;2.80;;;13.10;1.00;;;;;;5078510;28;20440;-78
2022/09/18 10:16:16;;;;;;;8.87;4.70;;;13.10;99.90;;;;;;5077540;28;20452;-78
2022/09/18 10:18:45;;;;;;;3.10;2.53;;;13.10;99.90;;;;;;5080935;28;20441;-78
2022/09/18 10:21:15;;;;;;;5.50;3.60;;;13.00;1.00;;;;;;5076935;28;20518;-79
2022/09/18 10:23:43;;;;;;;9.30;2.50;;;13.00;99.90;;;;;;5077043;28;20449;-77
2022/09/18 10:26:14;;;;;;;7.20;3.43;;;13.10;1.00;;;;;;5075881;28;20906;-78
2022/09/18 10:28:41;;;;;;;9.83;3.70;;;13.20;99.90;;;;;;5076776;28;20452;-78
2022/09/18 10:31:17;;;;;;;3.17;2.00;;;13.40;1.00;;;;;;5077280;28;20448;-78
2022/09/18 10:33:46;;;;;;;11.23;2.27;;;13.50;99.90;;;;;;5075138;28;20420;-78
2022/09/18 10:36:21;;;;;;;6.30;3.03;;;13.70;1.00;;;;;;5074180;28;20465;-80
2022/09/18 10:38:48;;;;;;;5.80;3.27;;;13.80;58.00;;;;;;5074724;28;20448;-78
2022/09/18 10:41:27;;;;;;;8.37;2.97;;;13.80;1.00;;;;;;5079319;28;20470;-78
2022/09/18 10:43:57;;;;;;;6.57;1.53;;;13.70;1.00;;;;;;5076451;28;20959;-78
2022/09/18 10:46:28;;;;;;;4.83;2.50;;;13.70;1.00;;;;;;5076618;28;20469;-79
2022/09/18 10:48:57;;;;;;;5.50;2.00;;;13.60;1.00;;;;;;5076367;28;20422;-78
2022/09/18 10:51:25;;;;;;;2.47;1.73;;;13.50;1.00;;;;;;5076724;28;20841;-78
2022/09/18 10:54:03;;;;;;;3.63;1.67;;;13.50;1.00;;;;;;5076963;28;20476;-78
2022/09/18 10:56:31;;;;;;;3.73;1.27;;;13.70;1.00;;;;;;5040077;28;1050090;-79
2022/09/18 10:59:13;;;;;;;7.93;1.80;;;13.70;99.90;;;;;;5078812;28;20827;-79
2022/09/18 11:01:42;;;;;;;2.70;2.03;;;13.70;99.90;;;;;;5077040;28;20880;-78
2022/09/18 11:04:16;;;;;;;3.00;1.77;;;13.60;1.00;;;;;;5077083;28;20459;-78
2022/09/18 11:06:45;;;;;;;5.27;2.10;;;13.30;99.90;;;;;;5078762;28;20530;-78
2022/09/18 11:09:17;;;;;;;3.73;1.93;;;12.40;99.90;;;;;;5084434;28;20480;-79
2022/09/18 11:11:49;;;;;;;9.23;3.60;;;12.40;1.00;;;;;;5081162;28;20433;-77
2022/09/18 11:14:19;;;;;;;3.73;2.60;;;12.20;1.00;;;;;;5082748;28;20448;-79
2022/09/18 11:16:50;;;;;;;2.93;2.13;;;12.20;99.90;;;;;;5079821;28;20491;-79
2022/09/18 11:19:23;;;;;;;5.73;2.27;;;12.20;63.30;;;;;;5075610;28;20444;-79
2022/09/18 11:21:53;;;;;;;6.90;2.87;;;12.30;1.00;;;;;;5078887;28;20460;-79
2022/09/18 11:24:24;;;;;;;5.70;2.50;;;12.30;1.00;;;;;;5088434;28;20421;-79
2022/09/18 11:26:52;;;;;;;5.33;4.00;;;12.40;1.00;;;;;;5095604;28;20499;-78
2022/09/18 11:29:24;;;;;;;5.33;1.80;;;12.50;1.00;;;;;;5096002;28;20467;-78
2022/09/18 11:31:56;;;;;;;8.13;2.00;;;12.50;99.90;;;;;;5089442;28;20456;-78
2022/09/18 11:34:27;;;;;;;3.57;1.43;;;11.80;99.90;;;;;;5082488;28;20541;-79
2022/09/18 11:37:00;;;;;;;2.50;1.60;;;11.10;99.90;;;;;;5077403;28;20472;-78
2022/09/18 11:39:34;;;;;;;4.70;2.20;;;10.80;99.90;;;;;;5076968;28;20421;-79
2022/09/18 11:42:01;;;;;;;5.77;2.20;;;10.60;99.90;;;;;;5076271;28;20415;-79
2022/09/18 11:44:31;;;;;;;5.47;2.37;;;10.50;99.90;;;;;;5077015;28;20811;-79
2022/09/18 11:47:25;;;;;;;8.87;2.60;;;10.50;99.90;;;;;;5073483;28;20484;-78
2022/09/18 11:49:58;;;;;;;4.80;1.80;;;10.60;99.90;;;;;;5076630;28;20471;-78
2022/09/18 11:52:33;;;;;;;4.33;2.73;;;10.80;99.90;;;;;;5083548;28;20433;-78
2022/09/18 11:55:04;;;;;;;4.40;2.00;;;10.90;99.90;;;;;;5077067;28;20433;-79
2022/09/18 11:57:35;;;;;;;4.83;1.70;;;11.00;99.90;;;;;;5076082;28;20448;-79
2022/09/18 12:00:06;;;;;;;8.00;2.60;;;11.20;99.90;;;;;;5076874;28;20463;-78
2022/09/18 12:02:41;;;;;;;3.50;2.50;;;11.30;99.90;;;;;;5075612;28;20804;-80
2022/09/18 12:05:18;;;;;;;2.27;1.93;;;11.80;99.90;;;;;;5076872;28;20428;-79
2022/09/18 12:07:56;;;;;;;1.87;1.53;;;11.70;99.90;;;;;;5078217;28;20464;-79
2022/09/18 12:10:33;;;;;;;5.20;1.63;;;11.90;99.90;;;;;;5079176;28;20833;-77
2022/09/18 12:13:16;;;;;;;4.50;2.07;;;12.10;99.90;;;;;;5080326;28;20428;-79
2022/09/18 12:15:48;;;;;;;4.43;2.60;;;12.20;99.90;;;;;;5079135;28;20522;-80
2022/09/18 12:18:21;;;;;;;6.70;2.13;;;12.40;99.90;;;;;;5079699;28;20429;-81
2022/09/18 12:20:53;;;;;;;1.33;1.23;;;12.50;99.90;;;;;;5079671;28;20433;-80
2022/09/18 12:23:23;;;;;;;4.47;2.77;;;12.50;1.00;;;;;;5080082;28;20421;-82
2022/09/18 12:26:03;;;;;;;8.97;3.60;;;12.30;1.00;;;;;;5080287;28;20826;-80
2022/09/18 12:28:40;;;;;;;2.00;1.30;;;12.10;1.00;;;;;;5078609;28;20471;-80
2022/09/18 12:31:13;;;;;;;4.83;1.90;;;11.80;99.90;;;;;;5078693;28;20483;-80
2022/09/18 12:33:49;;;;;;;3.40;1.70;;;11.50;99.90;;;;;;5079286;28;20483;-81
2022/09/18 12:36:52;;;;;;;2.90;1.40;;;11.30;1.00;;;;;;5079260;28;20469;-79
2022/09/18 12:39:38;;;;;;;1.77;1.67;;;11.10;1.00;;;;;;5076040;28;20514;-80
2022/09/18 12:42:19;;;;;;;2.40;1.37;;;11.20;1.00;;;;;;5078150;28;20443;-80
2022/09/18 12:45:28;;;;;;;2.10;1.40;;;11.40;1.00;;;;;;5078762;28;20437;-80
2022/09/18 12:48:10;;;;;;;1.37;1.27;;;11.70;1.00;;;;;;5017057;28;20471;-80
2022/09/18 12:50:49;;;;;;;1.33;1.10;;;11.70;1.00;;;;;;5075766;28;20457;-80
2022/09/18 12:53:27;;;;;;;2.20;1.00;;;11.80;1.00;;;;;;5079201;28;20471;-80
2022/09/18 12:56:18;;;;;;;1.80;1.23;;;11.80;1.00;;;;;;5079556;28;20480;-80
2022/09/18 12:59:05;;;;;;;1.97;1.63;;;12.00;1.00;;;;;;5079338;28;20440;-80
2022/09/18 13:01:36;;;;;;;4.20;1.70;;;12.20;1.00;;;;;;5078041;28;20416;-80
2022/09/18 13:04:09;;;;;;;3.33;2.33;;;12.30;1.00;;;;;;5079744;28;20437;-80